Time;durP1;ratioP1;P1;durP2;ratioP2;P2;SDS_P1;SDS_P2;PMS_P1;PMS_P2;Temp;Humidity;BMP_temperature;BMP_pressure;BME280_temperature;BME280_humidity;BME280_pressure;Samples;Min_cycle;Max_cycle;Signal;HPM_P1;HPM_P2
2022/08/10 05:01:56;;;;;;;;;;;17.40;83.20;;;;;;5726519;23;20129;-74
2022/08/10 05:04:21;;;;;;;;;;;17.50;82.60;;;;;;4972999;28;19910;-74
2022/08/10 05:06:47;;;;;;;;;;;17.60;82.30;;;;;;4980895;28;19917;-74
2022/08/10 05:09:13;;;;;;;;;;;17.70;82.60;;;;;;4985317;28;19917;-76
2022/08/10 05:11:39;;;;;;;;;;;17.80;82.40;;;;;;4965448;29;20158;-75
2022/08/10 05:14:05;;;;;;;;;;;17.90;81.70;;;;;;4966219;28;19910;-75
2022/08/10 05:16:31;;;;;;;;;;;18.00;80.90;;;;;;4965161;29;20263;-75
2022/08/10 05:18:56;;;;;;;;;;;18.10;80.30;;;;;;4974501;28;19921;-73
2022/08/10 05:21:22;;;;;;;;;;;18.20;79.70;;;;;;4985482;28;19913;-75
2022/08/10 05:23:47;;;;;;;;;;;18.30;79.50;;;;;;4985276;28;19996;-76
2022/08/10 05:26:13;;;;;;;;;;;18.40;79.00;;;;;;4984732;28;20106;-75
2022/08/10 05:28:39;;;;;;;;;;;18.50;78.50;;;;;;4985585;28;19910;-76
2022/08/10 05:31:04;;;;;;;;;;;18.60;78.10;;;;;;4984616;28;19992;-76
2022/08/10 05:33:30;;;;;;;;;;;18.70;77.60;;;;;;4985429;28;20089;-75
2022/08/10 05:35:56;;;;;;;;;;;18.80;77.60;;;;;;4975292;28;19945;-76
2022/08/10 05:38:24;;;;;;;;;;;18.90;77.40;;;;;;4965710;28;19945;-75
2022/08/10 05:40:50;;;;;;;;;;;18.90;77.00;;;;;;4965888;29;19949;-77
2022/08/10 05:43:17;;;;;;;;;;;19.00;77.00;;;;;;4965858;29;19933;-75
2022/08/10 05:45:43;;;;;;;;;;;19.10;76.20;;;;;;4965487;28;19958;-75
2022/08/10 05:48:09;;;;;;;;;;;19.20;76.00;;;;;;4964270;29;19915;-79
2022/08/10 05:50:34;;;;;;;;;;;19.30;75.40;;;;;;4965658;29;19910;-76
2022/08/10 05:53:00;;;;;;;;;;;19.40;75.40;;;;;;4965159;28;19945;-78
2022/08/10 05:55:28;;;;;;;;;;;19.50;75.00;;;;;;4965797;28;20112;-79
2022/08/10 05:57:53;;;;;;;;;;;19.60;74.50;;;;;;4965832;29;19932;-77
2022/08/10 06:00:20;;;;;;;;;;;19.70;74.40;;;;;;4965852;28;19914;-78
2022/08/10 06:02:47;;;;;;;;;;;19.80;73.80;;;;;;4965704;28;19918;-76
2022/08/10 06:05:14;;;;;;;;;;;19.90;73.50;;;;;;4965087;28;19911;-76
2022/08/10 06:07:43;;;;;;;;;;;20.00;73.00;;;;;;4965536;28;20112;-77
2022/08/10 06:10:11;;;;;;;;;;;20.10;72.30;;;;;;4964705;28;20179;-76
2022/08/10 06:12:38;;;;;;;;;;;20.20;71.80;;;;;;4964853;28;20171;-76
2022/08/10 06:15:05;;;;;;;;;;;20.30;71.90;;;;;;4964991;28;19941;-76
2022/08/10 06:17:30;;;;;;;;;;;20.40;71.70;;;;;;4965081;28;19981;-76
2022/08/10 06:19:57;;;;;;;;;;;20.40;71.40;;;;;;4964800;28;19914;-76
2022/08/10 06:22:24;;;;;;;;;;;20.60;71.50;;;;;;4965448;28;19977;-77
2022/08/10 06:24:50;;;;;;;;;;;20.80;71.00;;;;;;4965066;28;19917;-74
2022/08/10 06:27:16;;;;;;;;;;;20.80;70.40;;;;;;4964765;28;19911;-76
2022/08/10 06:29:42;;;;;;;;;;;20.90;70.30;;;;;;4965161;28;20026;-77
2022/08/10 06:32:10;;;;;;;;;;;21.00;70.10;;;;;;4964273;28;19998;-77
2022/08/10 06:34:42;;;;;;;;;;;21.10;69.80;;;;;;4964589;28;19977;-76
2022/08/10 06:37:09;;;;;;;;;;;21.20;69.60;;;;;;4964291;28;19922;-76
2022/08/10 06:39:35;;;;;;;;;;;21.30;69.00;;;;;;4964916;29;19914;-75
2022/08/10 06:42:09;;;;;;;;;;;21.40;68.60;;;;;;4964033;29;19993;-75
2022/08/10 06:44:37;;;;;;;;;;;21.60;67.70;;;;;;4965032;28;20230;-75
2022/08/10 06:47:04;;;;;;;;;;;21.70;67.80;;;;;;4954940;28;20162;-75
2022/08/10 06:49:31;;;;;;;;;;;21.90;66.80;;;;;;4964258;28;19911;-76
2022/08/10 06:52:00;;;;;;;;;;;22.00;67.10;;;;;;4963670;28;20176;-76
2022/08/10 06:54:27;;;;;;;;;;;22.10;66.00;;;;;;4964721;28;20102;-75
2022/08/10 06:56:55;;;;;;;;;;;22.20;65.90;;;;;;4964210;28;19921;-75
2022/08/10 06:59:24;;;;;;;;;;;22.30;66.70;;;;;;4963277;29;19914;-76
2022/08/10 07:01:57;;;;;;;;;;;22.40;64.70;;;;;;4964087;28;20179;-76
2022/08/10 07:04:25;;;;;;;;;;;22.60;65.30;;;;;;4964239;28;19910;-76
2022/08/10 07:06:53;;;;;;;;;;;22.70;64.70;;;;;;4963102;28;19910;-76
2022/08/10 07:09:19;;;;;;;;;;;22.80;63.80;;;;;;4962614;29;20129;-76
2022/08/10 07:11:46;;;;;;;;;;;22.80;63.70;;;;;;4963015;29;19941;-76
2022/08/10 07:14:13;;;;;;;;;;;22.90;64.10;;;;;;4963788;28;19910;-77
2022/08/10 07:16:41;;;;;;;;;;;23.00;64.10;;;;;;4963068;29;19913;-76
2022/08/10 07:19:08;;;;;;;;;;;23.00;63.90;;;;;;4963685;28;20200;-76
2022/08/10 07:21:34;;;;;;;;;;;23.10;64.00;;;;;;4964316;28;19907;-77
2022/08/10 07:24:00;;;;;;;;;;;23.20;63.70;;;;;;4963595;28;19981;-77
2022/08/10 07:26:27;;;;;;;;;;;23.40;63.20;;;;;;4962936;28;19962;-77
2022/08/10 07:28:53;;;;;;;;;;;23.50;62.30;;;;;;4944035;29;19910;-76
2022/08/10 07:31:20;;;;;;;;;;;23.60;62.10;;;;;;4960836;29;19914;-76
2022/08/10 07:33:47;;;;;;;;;;;23.70;61.70;;;;;;4962901;28;20057;-76
2022/08/10 07:36:13;;;;;;;;;;;23.80;61.80;;;;;;4961971;28;20153;-76
2022/08/10 07:38:40;;;;;;;;;;;23.90;61.40;;;;;;4962876;28;19911;-76
2022/08/10 07:41:07;;;;;;;;;;;24.10;61.00;;;;;;4962280;28;19949;-76
2022/08/10 07:43:35;;;;;;;;;;;24.10;60.90;;;;;;4961674;29;19977;-76
2022/08/10 07:46:04;;;;;;;;;;;24.10;60.60;;;;;;4961991;28;19916;-77
2022/08/10 07:48:32;;;;;;;;;;;24.30;60.80;;;;;;4962914;28;19911;-75
2022/08/10 07:51:00;;;;;;;;;;;24.30;60.20;;;;;;4960999;29;19910;-78
2022/08/10 07:53:29;;;;;;;;;;;24.30;60.40;;;;;;4961646;29;19906;-77
2022/08/10 07:55:56;;;;;;;;;;;24.30;59.90;;;;;;4963452;29;19910;-78
2022/08/10 07:58:24;;;;;;;;;;;24.40;60.10;;;;;;4961833;29;19957;-76
2022/08/10 08:00:51;;;;;;;;;;;24.50;59.90;;;;;;4961674;28;20088;-77
2022/08/10 08:03:19;;;;;;;;;;;24.60;59.80;;;;;;4965399;28;19954;-76
2022/08/10 08:05:45;;;;;;;;;;;24.60;59.80;;;;;;4981009;28;19956;-76
2022/08/10 08:08:12;;;;;;;;;;;24.70;59.60;;;;;;4980880;28;19954;-76
2022/08/10 08:10:38;;;;;;;;;;;24.80;59.30;;;;;;4965300;29;19984;-77
2022/08/10 08:13:04;;;;;;;;;;;24.90;59.30;;;;;;4965488;28;19965;-76
2022/08/10 08:15:32;;;;;;;;;;;24.90;59.30;;;;;;4965007;29;19949;-77
2022/08/10 08:18:00;;;;;;;;;;;25.00;59.60;;;;;;4965919;29;19914;-77
2022/08/10 08:20:27;;;;;;;;;;;25.10;58.80;;;;;;4965742;29;20104;-76
2022/08/10 08:22:53;;;;;;;;;;;25.20;58.70;;;;;;4965949;28;19911;-76
2022/08/10 08:25:19;;;;;;;;;;;25.20;59.10;;;;;;4964139;29;19986;-76
2022/08/10 08:27:51;;;;;;;;;;;25.40;58.60;;;;;;4965780;28;19989;-76
2022/08/10 08:30:17;;;;;;;;;;;25.30;57.80;;;;;;4964431;29;19918;-77
2022/08/10 08:32:43;;;;;;;;;;;25.30;58.10;;;;;;4964894;29;19938;-76
2022/08/10 08:35:10;;;;;;;;;;;25.40;58.10;;;;;;4965724;28;19933;-78
2022/08/10 08:37:36;;;;;;;;;;;25.60;57.60;;;;;;4966092;28;19914;-76
2022/08/10 08:40:04;;;;;;;;;;;25.60;57.20;;;;;;4959698;28;20153;-76
2022/08/10 08:42:48;;;;;;;;;;;25.60;57.20;;;;;;4946257;29;19953;-78
2022/08/10 08:45:33;;;;;;;;;;;25.70;57.40;;;;;;4928792;29;19918;-77
2022/08/10 08:48:17;;;;;;;;;;;25.80;57.70;;;;;;4946316;29;19911;-77
2022/08/10 08:50:55;;;;;;;;;;;25.90;57.10;;;;;;4946260;29;19917;-77
2022/08/10 08:53:36;;;;;;;;;;;26.10;56.80;;;;;;4944658;29;20281;-77
2022/08/10 08:56:02;;;;;;;;;;;26.20;55.90;;;;;;4946233;29;19955;-77
2022/08/10 08:58:27;;;;;;;;;;;26.20;55.70;;;;;;4945992;29;19977;-77
2022/08/10 09:01:02;;;;;;;;;;;26.30;55.90;;;;;;4945795;29;19914;-76
2022/08/10 09:03:43;;;;;;;;;;;26.40;55.30;;;;;;4945851;29;19985;-77
2022/08/10 09:06:17;;;;;;;;;;;26.40;55.40;;;;;;4945558;29;19915;-77
2022/08/10 09:09:01;;;;;;;;;;;26.60;55.30;;;;;;4945741;29;19911;-78
2022/08/10 09:11:39;;;;;;;;;;;26.70;54.30;;;;;;4946011;29;20188;-78
2022/08/10 09:14:10;;;;;;;;;;;26.70;54.10;;;;;;4945002;29;19981;-77
2022/08/10 09:16:58;;;;;;;;;;;26.70;53.40;;;;;;4944802;29;20096;-77
2022/08/10 09:19:30;;;;;;;;;;;26.70;53.10;;;;;;4938280;29;19985;-77
2022/08/10 09:21:59;;;;;;;;;;;26.80;52.90;;;;;;4944640;29;19918;-78
2022/08/10 09:24:44;;;;;;;;;;;26.90;52.00;;;;;;4944447;29;19913;-78
2022/08/10 09:27:18;;;;;;;;;;;26.90;51.40;;;;;;4945346;29;19911;-77
2022/08/10 09:29:51;;;;;;;;;;;27.00;51.50;;;;;;4945647;29;20108;-78
2022/08/10 09:32:22;;;;;;;;;;;27.10;51.80;;;;;;4944949;29;19993;-76
2022/08/10 09:34:56;;;;;;;;;;;27.20;50.50;;;;;;4944334;29;20116;-77
2022/08/10 09:37:25;;;;;;;;;;;27.20;50.50;;;;;;4944610;29;20001;-77
2022/08/10 09:39:53;;;;;;;;;;;27.20;50.20;;;;;;4945343;29;19922;-75
2022/08/10 09:42:37;;;;;;;;;;;27.00;50.40;;;;;;4943692;29;20057;-76
2022/08/10 09:45:29;;;;;;;;;;;27.00;50.70;;;;;;4944933;29;19915;-76
2022/08/10 09:48:01;;;;;;;;;;;27.10;50.30;;;;;;4945442;29;20012;-77
2022/08/10 09:50:27;;;;;;;;;;;27.20;49.70;;;;;;4944568;29;19946;-78
2022/08/10 09:53:05;;;;;;;;;;;27.10;50.40;;;;;;4944826;29;19911;-77
2022/08/10 09:55:36;;;;;;;;;;;27.20;50.30;;;;;;4945041;29;20196;-77
2022/08/10 09:58:02;;;;;;;;;;;27.30;50.60;;;;;;4945144;29;19915;-77
2022/08/10 10:00:34;;;;;;;;;;;27.60;49.60;;;;;;4945247;29;20077;-78
2022/08/10 10:03:05;;;;;;;;;;;27.60;47.90;;;;;;4944717;29;19967;-77
2022/08/10 10:05:49;;;;;;;;;;;27.60;47.60;;;;;;4945044;29;19910;-78
2022/08/10 10:08:24;;;;;;;;;;;27.70;48.10;;;;;;4944201;29;19987;-76
2022/08/10 10:11:03;;;;;;;;;;;27.70;48.20;;;;;;4943745;29;20212;-78
2022/08/10 10:13:47;;;;;;;;;;;27.80;48.90;;;;;;4957823;28;19937;-78
2022/08/10 10:16:13;;;;;;;;;;;27.90;48.70;;;;;;4944155;29;19957;-76
2022/08/10 10:18:44;;;;;;;;;;;28.00;47.70;;;;;;4943682;29;19915;-77
2022/08/10 10:21:13;;;;;;;;;;;28.10;47.90;;;;;;4943729;29;19922;-77
2022/08/10 10:23:47;;;;;;;;;;;28.10;47.10;;;;;;4944965;29;19933;-78
2022/08/10 10:26:13;;;;;;;;;;;28.10;46.90;;;;;;4926470;29;19910;-77
2022/08/10 10:28:48;;;;;;;;;;;28.20;47.60;;;;;;4944580;29;20137;-78
2022/08/10 10:31:29;;;;;;;;;;;28.20;47.90;;;;;;4925274;29;19911;-78
2022/08/10 10:34:09;;;;;;;;;;;28.30;48.40;;;;;;4925369;29;19922;-77
2022/08/10 10:36:36;;;;;;;;;;;28.30;48.90;;;;;;4941163;29;19918;-78
2022/08/10 10:39:03;;;;;;;;;;;28.30;48.70;;;;;;4939939;29;19918;-79
2022/08/10 10:41:31;;;;;;;;;;;28.30;48.40;;;;;;4923760;29;19978;-77
2022/08/10 10:43:57;;;;;;;;;;;28.40;48.80;;;;;;4924238;29;19911;-78
2022/08/10 10:46:41;;;;;;;;;;;28.40;49.00;;;;;;4924651;29;19982;-77
2022/08/10 10:49:12;;;;;;;;;;;28.40;49.10;;;;;;4924837;29;19982;-79
2022/08/10 10:51:53;;;;;;;;;;;28.50;49.10;;;;;;4925207;29;19911;-78
2022/08/10 10:54:26;;;;;;;;;;;28.50;48.70;;;;;;4943517;29;19997;-78
2022/08/10 10:57:10;;;;;;;;;;;28.60;48.40;;;;;;4943180;29;19918;-78
2022/08/10 10:59:42;;;;;;;;;;;28.60;48.30;;;;;;4943333;29;20022;-78
2022/08/10 11:02:26;;;;;;;;;;;28.70;47.60;;;;;;4941830;29;19994;-77
2022/08/10 11:05:01;;;;;;;;;;;28.80;47.60;;;;;;4944661;29;19910;-78
2022/08/10 11:07:53;;;;;;;;;;;29.00;47.10;;;;;;4942696;29;19974;-78
2022/08/10 11:10:21;;;;;;;;;;;29.00;46.90;;;;;;4954530;28;19919;-78
2022/08/10 11:13:02;;;;;;;;;;;29.10;46.80;;;;;;4944297;29;19911;-78
2022/08/10 11:15:31;;;;;;;;;;;29.20;46.80;;;;;;4943488;29;19911;-78
2022/08/10 11:18:03;;;;;;;;;;;29.40;46.60;;;;;;4943602;29;19921;-77
2022/08/10 11:20:39;;;;;;;;;;;29.60;46.20;;;;;;4942096;29;20185;-78
2022/08/10 11:23:10;;;;;;;;;;;29.70;46.40;;;;;;4944064;29;20015;-76
2022/08/10 11:25:39;;;;;;;;;;;29.70;46.40;;;;;;4926896;29;19970;-76
2022/08/10 11:28:08;;;;;;;;;;;30.00;45.70;;;;;;4943873;29;20014;-77
2022/08/10 11:30:55;;;;;;;;;;;30.20;45.80;;;;;;4942649;29;19977;-77
2022/08/10 11:33:26;;;;;;;;;;;30.50;45.60;;;;;;4943319;29;19946;-76
2022/08/10 11:36:01;;;;;;;;;;;30.80;45.30;;;;;;4944086;29;19911;-78
2022/08/10 11:38:45;;;;;;;;;;;31.40;45.20;;;;;;4945465;29;19922;-77
2022/08/10 11:41:20;;;;;;;;;;;32.00;45.00;;;;;;4946649;29;20085;-77
2022/08/10 11:43:50;;;;;;;;;;;32.30;44.20;;;;;;4947549;29;20252;-77
2022/08/10 11:46:21;;;;;;;;;;;32.90;43.70;;;;;;4947208;29;20085;-79
2022/08/10 11:49:01;;;;;;;;;;;33.80;42.70;;;;;;4947364;29;20197;-77
2022/08/10 11:51:36;;;;;;;;;;;34.70;42.10;;;;;;4947095;29;20141;-77
2022/08/10 11:54:06;;;;;;;;;;;35.50;41.10;;;;;;4946137;29;19911;-78
2022/08/10 11:56:38;;;;;;;;;;;36.30;41.00;;;;;;4947854;29;19922;-77
2022/08/10 12:01:49;;;;;;;;;;;36.80;40.50;;;;;;4946945;29;19925;-76
2022/08/10 12:04:15;;;;;;;;;;;37.60;40.50;;;;;;4947112;29;19917;-77
2022/08/10 12:06:42;;;;;;;;;;;38.20;39.90;;;;;;4947103;29;19938;-76
2022/08/10 12:09:10;;;;;;;;;;;38.60;39.60;;;;;;4946614;29;19915;-77
2022/08/10 12:11:35;;;;;;;;;;;38.50;39.60;;;;;;4946014;29;19983;-76
2022/08/10 12:14:13;;;;;;;;;;;38.90;39.20;;;;;;4946976;29;20129;-77
2022/08/10 12:16:40;;;;;;;;;;;38.80;39.30;;;;;;4930020;29;20161;-77
2022/08/10 12:19:12;;;;;;;;;;;38.50;39.00;;;;;;4945703;29;19922;-77
2022/08/10 12:21:40;;;;;;;;;;;38.30;39.20;;;;;;4946621;29;19918;-77
2022/08/10 12:24:08;;;;;;;;;;;38.90;39.00;;;;;;4946780;29;19979;-76
2022/08/10 12:26:41;;;;;;;;;;;38.90;38.50;;;;;;4945531;29;19953;-78
2022/08/10 12:29:13;;;;;;;;;;;39.00;38.60;;;;;;4945368;29;19911;-78
2022/08/10 12:31:39;;;;;;;;;;;38.20;38.80;;;;;;4945319;29;19989;-77
2022/08/10 12:34:13;;;;;;;;;;;38.50;39.00;;;;;;4929638;29;19970;-77
2022/08/10 12:36:40;;;;;;;;;;;39.20;38.60;;;;;;4929710;29;19934;-77
2022/08/10 12:39:17;;;;;;;;;;;39.50;37.70;;;;;;4946659;29;19914;-79
2022/08/10 12:41:55;;;;;;;;;;;39.80;37.80;;;;;;4946732;29;19911;-75
2022/08/10 12:44:49;;;;;;;;;;;40.40;37.40;;;;;;4945951;29;20281;-76
2022/08/10 12:47:19;;;;;;;;;;;40.70;37.40;;;;;;4944828;29;19918;-76
2022/08/10 12:49:59;;;;;;;;;;;40.90;37.50;;;;;;4944787;29;19911;-75
2022/08/10 12:52:48;;;;;;;;;;;41.50;37.10;;;;;;4945514;29;19946;-77
2022/08/10 12:55:15;;;;;;;;;;;41.20;36.90;;;;;;4934901;29;19934;-75
2022/08/10 12:57:42;;;;;;;;;;;41.20;37.00;;;;;;4946097;29;19954;-76
2022/08/10 13:00:09;;;;;;;;;;;41.20;37.20;;;;;;4944859;29;20170;-77
2022/08/10 13:02:37;;;;;;;;;;;41.60;37.10;;;;;;4944729;29;19989;-76
2022/08/10 13:05:12;;;;;;;;;;;41.20;37.00;;;;;;4944819;29;19933;-76
2022/08/10 13:07:43;;;;;;;;;;;42.20;36.80;;;;;;4946098;29;20260;-76
2022/08/10 13:10:10;;;;;;;;;;;42.60;36.20;;;;;;4945981;29;19911;-77
2022/08/10 13:12:40;;;;;;;;;;;42.30;36.30;;;;;;4945712;29;19907;-76
2022/08/10 13:15:11;;;;;;;;;;;42.80;36.10;;;;;;4946116;29;19910;-76
2022/08/10 13:17:38;;;;;;;;;;;43.40;35.90;;;;;;4946065;29;20101;-77
2022/08/10 13:20:05;;;;;;;;;;;44.20;35.70;;;;;;4945897;29;19999;-76
2022/08/10 13:22:33;;;;;;;;;;;44.50;35.60;;;;;;4945117;29;19919;-77
2022/08/10 13:25:01;;;;;;;;;;;45.40;35.20;;;;;;4944705;29;19917;-77
2022/08/10 13:27:28;;;;;;;;;;;46.00;34.70;;;;;;4945167;29;19966;-76
2022/08/10 13:29:57;;;;;;;;;;;44.90;34.70;;;;;;4945846;29;19911;-76
2022/08/10 13:32:26;;;;;;;;;;;44.30;35.00;;;;;;4944748;29;19946;-76
2022/08/10 13:34:52;;;;;;;;;;;43.40;35.10;;;;;;4945479;29;19910;-77
2022/08/10 13:37:19;;;;;;;;;;;43.00;35.50;;;;;;4944856;29;19915;-77
2022/08/10 13:39:46;;;;;;;;;;;43.70;35.10;;;;;;4945690;29;19915;-77
2022/08/10 13:42:12;;;;;;;;;;;44.40;35.10;;;;;;4943446;29;19993;-79
2022/08/10 13:44:45;;;;;;;;;;;45.30;34.40;;;;;;4945439;29;19934;-77
2022/08/10 13:47:12;;;;;;;;;;;44.90;34.60;;;;;;4945025;29;19911;-77
2022/08/10 13:49:44;;;;;;;;;;;45.20;34.70;;;;;;4944123;29;19994;-77
2022/08/10 13:52:14;;;;;;;;;;;44.70;34.40;;;;;;4945276;29;19945;-76
2022/08/10 13:54:41;;;;;;;;;;;45.10;34.70;;;;;;4944219;29;19954;-76
2022/08/10 13:57:07;;;;;;;;;;;45.10;34.60;;;;;;4945002;29;19957;-75
2022/08/10 13:59:33;;;;;;;;;;;45.40;34.30;;;;;;4944711;29;19982;-76
2022/08/10 14:02:01;;;;;;;;;;;45.70;33.90;;;;;;4943677;29;19922;-77
2022/08/10 14:04:27;;;;;;;;;;;45.50;33.80;;;;;;4944670;29;20105;-77
2022/08/10 14:06:54;;;;;;;;;;;46.60;34.00;;;;;;4944079;29;19911;-77
2022/08/10 14:09:23;;;;;;;;;;;45.90;33.20;;;;;;4944608;29;19966;-77
2022/08/10 14:11:49;;;;;;;;;;;45.10;33.50;;;;;;4928088;29;19949;-77
2022/08/10 14:14:20;;;;;;;;;;;45.90;34.10;;;;;;4944232;29;20078;-77
2022/08/10 14:16:46;;;;;;;;;;;46.80;33.50;;;;;;4943835;29;20158;-75
2022/08/10 14:19:16;;;;;;;;;;;46.30;33.20;;;;;;4943582;29;20197;-77
2022/08/10 14:21:42;;;;;;;;;;;46.70;33.30;;;;;;4944690;29;19941;-76
2022/08/10 14:24:20;;;;;;;;;;;46.20;33.40;;;;;;4944998;29;19950;-77
2022/08/10 14:26:46;;;;;;;;;;;45.80;33.20;;;;;;4945955;28;19911;-77
2022/08/10 14:29:12;;;;;;;;;;;46.30;33.60;;;;;;4944815;29;19911;-79
2022/08/10 14:31:39;;;;;;;;;;;47.20;33.60;;;;;;4945661;29;20203;-77
2022/08/10 14:34:09;;;;;;;;;;;48.00;33.10;;;;;;4946015;29;19918;-77
2022/08/10 14:36:50;;;;;;;;;;;46.60;32.70;;;;;;4945321;29;19925;-77
2022/08/10 14:39:38;;;;;;;;;;;47.20;33.50;;;;;;4945095;29;20092;-77
2022/08/10 14:42:05;;;;;;;;;;;48.30;33.30;;;;;;4945248;28;19910;-78
2022/08/10 14:44:32;;;;;;;;;;;48.20;32.90;;;;;;4945073;29;19918;-77
2022/08/10 14:47:01;;;;;;;;;;;46.90;33.10;;;;;;4945691;29;19910;-77
2022/08/10 14:49:27;;;;;;;;;;;46.80;33.20;;;;;;4945180;29;19917;-78
2022/08/10 14:51:58;;;;;;;;;;;46.80;33.10;;;;;;4944288;29;19911;-77
2022/08/10 14:54:25;;;;;;;;;;;47.10;33.20;;;;;;4943767;29;19911;-76
2022/08/10 14:56:51;;;;;;;;;;;47.30;32.90;;;;;;4944251;29;19918;-77
2022/08/10 14:59:18;;;;;;;;;;;47.50;32.70;;;;;;4944773;29;19946;-78
2022/08/10 15:01:44;;;;;;;;;;;47.60;32.90;;;;;;4944969;29;20220;-76
2022/08/10 15:04:11;;;;;;;;;;;47.90;32.60;;;;;;4945793;29;19918;-78
2022/08/10 15:06:51;;;;;;;;;;;48.60;32.70;;;;;;4944632;29;19977;-78
2022/08/10 15:09:18;;;;;;;;;;;48.30;32.00;;;;;;4944552;29;19918;-77
2022/08/10 15:11:44;;;;;;;;;;;48.30;32.40;;;;;;4944581;29;19911;-77
2022/08/10 15:14:10;;;;;;;;;;;49.60;32.70;;;;;;4944101;29;20188;-78
2022/08/10 15:16:36;;;;;;;;;;;50.30;32.00;;;;;;4944634;29;19926;-76
2022/08/10 15:19:04;;;;;;;;;;;49.50;31.90;;;;;;4959996;29;20201;-77
2022/08/10 15:21:32;;;;;;;;;;;49.50;32.10;;;;;;4944620;29;19953;-77
2022/08/10 15:23:59;;;;;;;;;;;49.80;32.70;;;;;;4960051;29;19911;-77
2022/08/10 15:26:26;;;;;;;;;;;49.50;31.70;;;;;;4944774;29;19911;-78
2022/08/10 15:28:56;;;;;;;;;;;48.90;31.80;;;;;;4945287;29;19910;-78
2022/08/10 15:31:22;;;;;;;;;;;48.40;32.10;;;;;;4943431;29;19918;-77
2022/08/10 15:39:25;;;;;;;;;;;48.80;32.00;;;;;;4944440;29;20222;-77
2022/08/10 15:41:53;;;;;;;;;;;48.40;31.80;;;;;;4959871;29;20109;-78
2022/08/10 15:44:19;;;;;;;;;;;48.70;31.90;;;;;;4944036;29;19918;-77
2022/08/10 15:46:49;;;;;;;;;;;48.70;31.90;;;;;;4944492;29;19917;-78
2022/08/10 15:49:24;;;;;;;;;;;47.90;32.10;;;;;;4944844;29;19979;-77
2022/08/10 15:51:58;;;;;;;;;;;47.30;32.30;;;;;;4944814;29;19914;-77
2022/08/10 15:54:31;;;;;;;;;;;46.90;32.50;;;;;;4943993;29;19911;-79
2022/08/10 15:57:02;;;;;;;;;;;46.30;32.80;;;;;;4944968;29;20185;-76
2022/08/10 15:59:31;;;;;;;;;;;46.40;32.70;;;;;;4944427;29;19933;-76
2022/08/10 16:02:04;;;;;;;;;;;46.90;32.70;;;;;;4944543;29;20249;-78
2022/08/10 16:04:31;;;;;;;;;;;46.80;32.30;;;;;;4942730;29;20113;-77
2022/08/10 16:07:10;;;;;;;;;;;46.90;32.60;;;;;;4943704;29;19907;-77
2022/08/10 16:09:44;;;;;;;;;;;46.90;32.60;;;;;;4943249;29;19987;-76
2022/08/10 16:12:17;;;;;;;;;;;46.40;32.50;;;;;;4944619;29;19918;-77
2022/08/10 16:14:44;;;;;;;;;;;46.80;32.50;;;;;;4944420;29;19918;-78
2022/08/10 16:17:11;;;;;;;;;;;47.00;32.60;;;;;;4944569;29;19922;-77
2022/08/10 16:19:44;;;;;;;;;;;47.00;32.40;;;;;;4942970;29;19919;-78
2022/08/10 16:22:10;;;;;;;;;;;47.20;32.50;;;;;;4944917;29;19911;-76
2022/08/10 16:24:36;;;;;;;;;;;47.20;32.60;;;;;;4946901;29;20190;-77
2022/08/10 16:27:06;;;;;;;;;;;47.90;32.40;;;;;;4947720;29;19917;-76
2022/08/10 16:29:36;;;;;;;;;;;47.80;32.00;;;;;;4946163;29;19911;-77
2022/08/10 16:32:03;;;;;;;;;;;46.70;32.30;;;;;;4947686;29;19914;-78
2022/08/10 16:34:30;;;;;;;;;;;46.70;32.90;;;;;;4947359;29;19918;-77
2022/08/10 16:36:58;;;;;;;;;;;46.50;32.70;;;;;;4947952;29;19921;-76
2022/08/10 16:39:25;;;;;;;;;;;47.40;32.80;;;;;;4946984;29;19985;-78
2022/08/10 16:41:53;;;;;;;;;;;47.30;32.40;;;;;;4947765;29;19981;-78
2022/08/10 16:44:19;;;;;;;;;;;46.70;32.60;;;;;;4947868;29;19911;-78
2022/08/10 16:46:45;;;;;;;;;;;45.80;33.00;;;;;;4946990;29;19918;-76
2022/08/10 16:49:12;;;;;;;;;;;45.30;33.10;;;;;;4946442;29;20201;-77
2022/08/10 16:51:38;;;;;;;;;;;45.10;33.10;;;;;;4946955;29;19915;-78
2022/08/10 16:54:05;;;;;;;;;;;44.70;33.10;;;;;;4946602;29;20189;-78
2022/08/10 16:56:32;;;;;;;;;;;45.30;33.30;;;;;;4947093;29;19958;-77
2022/08/10 16:58:59;;;;;;;;;;;44.30;33.20;;;;;;4947720;29;19950;-77
2022/08/10 17:01:26;;;;;;;;;;;42.50;34.00;;;;;;4946467;29;19922;-76
2022/08/10 17:03:54;;;;;;;;;;;40.40;34.80;;;;;;4947557;29;19919;-77
2022/08/10 17:06:22;;;;;;;;;;;38.70;35.80;;;;;;4947214;29;20109;-77
2022/08/10 17:08:50;;;;;;;;;;;37.10;36.90;;;;;;4946224;29;19944;-79
2022/08/10 17:11:18;;;;;;;;;;;35.50;38.00;;;;;;4947281;29;19933;-77
2022/08/10 17:13:43;;;;;;;;;;;34.80;39.00;;;;;;4946762;29;19961;-77
2022/08/10 17:16:10;;;;;;;;;;;34.40;39.20;;;;;;4947231;29;19911;-77
2022/08/10 17:18:40;;;;;;;;;;;33.80;39.70;;;;;;4946452;29;19921;-77
2022/08/10 17:21:18;;;;;;;;;;;33.30;40.30;;;;;;4947161;29;19914;-77
2022/08/10 17:23:45;;;;;;;;;;;33.30;40.40;;;;;;4945451;29;20157;-77
2022/08/10 17:26:14;;;;;;;;;;;33.60;40.00;;;;;;4946054;29;19918;-78
2022/08/10 17:28:46;;;;;;;;;;;33.60;39.70;;;;;;4945999;29;19978;-76
2022/08/10 17:31:22;;;;;;;;;;;33.00;40.20;;;;;;4946775;29;19911;-76
2022/08/10 17:33:51;;;;;;;;;;;32.60;40.90;;;;;;4945699;29;19911;-76
2022/08/10 17:36:17;;;;;;;;;;;32.30;41.20;;;;;;4945801;29;20212;-77
2022/08/10 17:38:47;;;;;;;;;;;32.00;41.40;;;;;;4944966;29;19921;-76
2022/08/10 17:41:15;;;;;;;;;;;31.70;41.70;;;;;;4946831;29;20195;-76
2022/08/10 17:43:41;;;;;;;;;;;31.60;42.00;;;;;;4945698;29;20171;-77
2022/08/10 17:46:09;;;;;;;;;;;31.60;41.80;;;;;;4944693;29;20212;-75
2022/08/10 17:48:35;;;;;;;;;;;31.70;41.80;;;;;;4945861;29;19950;-76
2022/08/10 17:51:07;;;;;;;;;;;31.90;41.40;;;;;;4946189;29;19910;-76
2022/08/10 17:53:38;;;;;;;;;;;32.40;41.10;;;;;;4944841;29;19945;-77
2022/08/10 17:56:05;;;;;;;;;;;32.40;41.10;;;;;;4946524;29;20024;-76
2022/08/10 17:58:32;;;;;;;;;;;32.00;41.40;;;;;;4944502;29;19983;-77
2022/08/10 18:00:59;;;;;;;;;;;31.40;41.60;;;;;;4960691;28;19915;-76
2022/08/10 18:03:33;;;;;;;;;;;30.80;42.10;;;;;;4945951;29;19958;-76
2022/08/10 18:06:01;;;;;;;;;;;30.50;42.80;;;;;;4946354;29;19919;-75
2022/08/10 18:08:28;;;;;;;;;;;30.10;42.90;;;;;;4945565;29;20208;-77
2022/08/10 18:10:56;;;;;;;;;;;29.90;43.20;;;;;;4946012;29;19922;-76
2022/08/10 18:13:22;;;;;;;;;;;29.70;43.40;;;;;;4944601;29;20181;-77
2022/08/10 18:15:48;;;;;;;;;;;29.50;43.70;;;;;;4943908;29;20340;-77
2022/08/10 18:18:17;;;;;;;;;;;29.40;43.80;;;;;;4945255;29;19919;-75
2022/08/10 18:20:42;;;;;;;;;;;29.30;44.00;;;;;;4945108;29;19915;-76
2022/08/10 18:23:09;;;;;;;;;;;29.10;44.20;;;;;;4945461;29;19982;-77
2022/08/10 18:25:36;;;;;;;;;;;29.00;45.00;;;;;;4960106;29;19907;-76
2022/08/10 18:28:03;;;;;;;;;;;28.90;44.50;;;;;;4945406;29;20074;-76
2022/08/10 18:30:30;;;;;;;;;;;28.70;44.70;;;;;;4944823;29;19911;-76
2022/08/10 18:32:57;;;;;;;;;;;28.60;44.90;;;;;;4945231;29;20129;-77
2022/08/10 18:35:25;;;;;;;;;;;28.40;45.10;;;;;;4944532;29;19918;-78
2022/08/10 18:37:51;;;;;;;;;;;28.20;45.20;;;;;;4943815;29;19923;-77
2022/08/10 18:40:17;;;;;;;;;;;28.00;45.50;;;;;;4944088;29;19915;-76
2022/08/10 18:42:46;;;;;;;;;;;27.90;45.80;;;;;;4944577;29;19917;-77
2022/08/10 18:45:19;;;;;;;;;;;27.80;46.10;;;;;;4945030;29;19946;-76
2022/08/10 18:47:57;;;;;;;;;;;27.70;46.10;;;;;;4944725;29;19918;-76
2022/08/10 18:50:42;;;;;;;;;;;27.60;46.20;;;;;;4944396;29;19910;-76
2022/08/10 18:53:31;;;;;;;;;;;27.50;46.50;;;;;;4943975;29;19911;-76
2022/08/10 18:56:16;;;;;;;;;;;27.30;46.60;;;;;;4930991;29;19946;-76
2022/08/10 18:58:56;;;;;;;;;;;27.20;46.80;;;;;;4917805;29;19923;-76
2022/08/10 19:01:57;;;;;;;;;;;27.10;46.90;;;;;;4931059;29;20665;-76
2022/08/10 19:04:26;;;;;;;;;;;26.90;47.20;;;;;;4898502;29;19943;-77
2022/08/10 19:07:15;;;;;;;;;;;26.80;47.50;;;;;;4940081;29;19987;-77
2022/08/10 19:09:59;;;;;;;;;;;26.80;47.70;;;;;;4930188;29;20798;-77
2022/08/10 19:12:40;;;;;;;;;;;26.60;47.90;;;;;;4938118;29;19954;-77
2022/08/10 19:15:18;;;;;;;;;;;26.60;48.10;;;;;;4936901;29;20133;-75
2022/08/10 19:17:51;;;;;;;;;;;26.50;48.20;;;;;;4938014;29;20239;-77
2022/08/10 19:20:24;;;;;;;;;;;26.40;48.40;;;;;;4937039;29;19954;-76
2022/08/10 19:22:58;;;;;;;;;;;26.30;48.40;;;;;;4939182;29;19923;-76
2022/08/10 19:25:36;;;;;;;;;;;26.30;48.70;;;;;;4933855;29;19911;-76
2022/08/10 19:28:37;;;;;;;;;;;26.20;48.80;;;;;;4939165;29;19918;-77
2022/08/10 19:31:09;;;;;;;;;;;26.10;49.10;;;;;;4937527;29;19911;-76
2022/08/10 19:33:34;;;;;;;;;;;26.00;49.20;;;;;;4934284;29;19954;-77
2022/08/10 19:36:00;;;;;;;;;;;25.90;49.40;;;;;;4938157;29;19910;-77
2022/08/10 19:38:43;;;;;;;;;;;25.90;49.60;;;;;;4938233;29;19914;-76
2022/08/10 19:41:12;;;;;;;;;;;25.90;49.70;;;;;;4940937;29;19918;-77
2022/08/10 19:43:44;;;;;;;;;;;25.80;49.70;;;;;;4937066;29;19934;-77